sensor_id;sensor_type;location;lat;lon;timestamp;temperature;humidity
24430;DHT22;12613;47.408;8.412;2023-08-30T00:00:58;15.60;95.70
24430;DHT22;12613;47.408;8.412;2023-08-30T00:03:23;15.60;95.60
24430;DHT22;12613;47.408;8.412;2023-08-30T00:05:49;15.60;95.60
24430;DHT22;12613;47.408;8.412;2023-08-30T00:08:15;15.60;95.60
24430;DHT22;12613;47.408;8.412;2023-08-30T00:10:46;15.50;95.50
24430;DHT22;12613;47.408;8.412;2023-08-30T00:13:11;15.50;95.70
24430;DHT22;12613;47.408;8.412;2023-08-30T00:15:37;15.50;95.70
24430;DHT22;12613;47.408;8.412;2023-08-30T00:18:03;15.50;95.80
24430;DHT22;12613;47.408;8.412;2023-08-30T00:20:29;15.60;95.80
24430;DHT22;12613;47.408;8.412;2023-08-30T00:22:55;15.60;95.90
24430;DHT22;12613;47.408;8.412;2023-08-30T00:25:20;15.60;95.80
24430;DHT22;12613;47.408;8.412;2023-08-30T00:27:46;15.60;95.70
24430;DHT22;12613;47.408;8.412;2023-08-30T00:30:12;15.60;95.70
24430;DHT22;12613;47.408;8.412;2023-08-30T00:32:37;15.60;95.70
24430;DHT22;12613;47.408;8.412;2023-08-30T00:35:03;15.50;95.70
24430;DHT22;12613;47.408;8.412;2023-08-30T00:37:29;15.50;95.70
24430;DHT22;12613;47.408;8.412;2023-08-30T00:39:54;15.50;95.70
24430;DHT22;12613;47.408;8.412;2023-08-30T00:42:20;15.50;95.70
24430;DHT22;12613;47.408;8.412;2023-08-30T00:44:46;15.50;96.00
24430;DHT22;12613;47.408;8.412;2023-08-30T00:47:11;15.50;95.70
24430;DHT22;12613;47.408;8.412;2023-08-30T00:49:37;15.40;95.70
24430;DHT22;12613;47.408;8.412;2023-08-30T00:52:06;15.40;95.80
24430;DHT22;12613;47.408;8.412;2023-08-30T00:54:33;15.40;95.80
24430;DHT22;12613;47.408;8.412;2023-08-30T00:57:00;15.30;95.90
24430;DHT22;12613;47.408;8.412;2023-08-30T00:59:27;15.40;96.00
24430;DHT22;12613;47.408;8.412;2023-08-30T01:01:52;15.30;96.10
24430;DHT22;12613;47.408;8.412;2023-08-30T01:04:19;15.30;96.10
24430;DHT22;12613;47.408;8.412;2023-08-30T01:06:45;15.30;96.00
24430;DHT22;12613;47.408;8.412;2023-08-30T01:09:11;15.20;96.10
24430;DHT22;12613;47.408;8.412;2023-08-30T01:14:40;15.30;96.30
24430;DHT22;12613;47.408;8.412;2023-08-30T01:17:10;15.20;96.30
24430;DHT22;12613;47.408;8.412;2023-08-30T01:19:50;15.20;96.30
24430;DHT22;12613;47.408;8.412;2023-08-30T01:27:41;15.20;96.40
24430;DHT22;12613;47.408;8.412;2023-08-30T01:30:09;15.10;96.40
24430;DHT22;12613;47.408;8.412;2023-08-30T01:32:36;15.10;96.40
24430;DHT22;12613;47.408;8.412;2023-08-30T01:35:03;15.10;96.50
24430;DHT22;12613;47.408;8.412;2023-08-30T01:37:30;15.10;96.60
24430;DHT22;12613;47.408;8.412;2023-08-30T01:39:57;15.10;96.60
24430;DHT22;12613;47.408;8.412;2023-08-30T01:42:24;15.10;96.50
24430;DHT22;12613;47.408;8.412;2023-08-30T01:44:51;15.10;96.60
24430;DHT22;12613;47.408;8.412;2023-08-30T01:47:17;15.10;96.60
24430;DHT22;12613;47.408;8.412;2023-08-30T01:49:44;15.00;96.70
24430;DHT22;12613;47.408;8.412;2023-08-30T01:52:10;15.10;96.90
24430;DHT22;12613;47.408;8.412;2023-08-30T01:54:37;15.00;96.90
24430;DHT22;12613;47.408;8.412;2023-08-30T01:57:05;15.00;96.90
24430;DHT22;12613;47.408;8.412;2023-08-30T01:59:31;15.00;96.90
24430;DHT22;12613;47.408;8.412;2023-08-30T02:01:56;15.00;96.80
24430;DHT22;12613;47.408;8.412;2023-08-30T02:04:22;15.00;97.00
24430;DHT22;12613;47.408;8.412;2023-08-30T02:06:57;15.00;96.90
24430;DHT22;12613;47.408;8.412;2023-08-30T02:10:08;14.90;97.00
24430;DHT22;12613;47.408;8.412;2023-08-30T02:12:33;14.90;97.10
24430;DHT22;12613;47.408;8.412;2023-08-30T02:15:01;14.90;97.00
24430;DHT22;12613;47.408;8.412;2023-08-30T02:17:27;14.90;97.20
24430;DHT22;12613;47.408;8.412;2023-08-30T02:19:54;14.90;97.30
24430;DHT22;12613;47.408;8.412;2023-08-30T02:22:20;14.90;97.30
24430;DHT22;12613;47.408;8.412;2023-08-30T02:24:46;14.90;97.30
24430;DHT22;12613;47.408;8.412;2023-08-30T02:27:12;14.90;97.40
24430;DHT22;12613;47.408;8.412;2023-08-30T02:29:37;14.90;97.50
24430;DHT22;12613;47.408;8.412;2023-08-30T02:32:03;14.90;97.60
24430;DHT22;12613;47.408;8.412;2023-08-30T02:34:29;14.90;97.50
24430;DHT22;12613;47.408;8.412;2023-08-30T02:36:54;14.90;97.50
24430;DHT22;12613;47.408;8.412;2023-08-30T02:39:21;14.90;97.50
24430;DHT22;12613;47.408;8.412;2023-08-30T02:41:46;14.90;97.60
24430;DHT22;12613;47.408;8.412;2023-08-30T02:44:12;14.90;97.60
24430;DHT22;12613;47.408;8.412;2023-08-30T02:46:38;14.80;97.60
24430;DHT22;12613;47.408;8.412;2023-08-30T02:49:04;14.80;97.60
24430;DHT22;12613;47.408;8.412;2023-08-30T02:51:29;14.90;97.60
24430;DHT22;12613;47.408;8.412;2023-08-30T02:53:55;14.80;97.60
24430;DHT22;12613;47.408;8.412;2023-08-30T02:56:21;14.80;97.70
24430;DHT22;12613;47.408;8.412;2023-08-30T02:58:46;14.80;97.70
24430;DHT22;12613;47.408;8.412;2023-08-30T03:01:12;14.80;97.70
24430;DHT22;12613;47.408;8.412;2023-08-30T03:03:37;14.80;97.70
24430;DHT22;12613;47.408;8.412;2023-08-30T03:06:03;14.80;97.80
24430;DHT22;12613;47.408;8.412;2023-08-30T03:08:29;14.80;97.80
24430;DHT22;12613;47.408;8.412;2023-08-30T03:10:54;14.70;97.80
24430;DHT22;12613;47.408;8.412;2023-08-30T03:13:20;14.80;97.80
24430;DHT22;12613;47.408;8.412;2023-08-30T03:15:46;14.70;97.90
24430;DHT22;12613;47.408;8.412;2023-08-30T03:18:11;14.70;97.90
24430;DHT22;12613;47.408;8.412;2023-08-30T03:20:37;14.70;97.90
24430;DHT22;12613;47.408;8.412;2023-08-30T03:23:03;14.70;98.00
24430;DHT22;12613;47.408;8.412;2023-08-30T03:25:29;14.70;97.90
24430;DHT22;12613;47.408;8.412;2023-08-30T03:27:55;14.70;97.90
24430;DHT22;12613;47.408;8.412;2023-08-30T03:30:21;14.70;98.00
24430;DHT22;12613;47.408;8.412;2023-08-30T03:32:47;14.70;98.00
24430;DHT22;12613;47.408;8.412;2023-08-30T03:35:12;14.70;98.10
24430;DHT22;12613;47.408;8.412;2023-08-30T03:37:40;14.70;98.10
24430;DHT22;12613;47.408;8.412;2023-08-30T03:40:06;14.70;98.20
24430;DHT22;12613;47.408;8.412;2023-08-30T03:42:32;14.70;98.10
24430;DHT22;12613;47.408;8.412;2023-08-30T03:44:58;14.70;98.20
24430;DHT22;12613;47.408;8.412;2023-08-30T03:47:23;14.70;98.30
24430;DHT22;12613;47.408;8.412;2023-08-30T03:49:49;14.70;98.40
24430;DHT22;12613;47.408;8.412;2023-08-30T03:52:15;14.70;98.40
24430;DHT22;12613;47.408;8.412;2023-08-30T03:54:40;14.70;98.40
24430;DHT22;12613;47.408;8.412;2023-08-30T03:57:06;14.70;98.40
24430;DHT22;12613;47.408;8.412;2023-08-30T03:59:32;14.70;98.50
24430;DHT22;12613;47.408;8.412;2023-08-30T04:01:58;14.70;98.50
24430;DHT22;12613;47.408;8.412;2023-08-30T04:04:24;14.70;98.50
24430;DHT22;12613;47.408;8.412;2023-08-30T04:06:49;14.70;98.50
24430;DHT22;12613;47.408;8.412;2023-08-30T04:09:15;14.70;98.60
24430;DHT22;12613;47.408;8.412;2023-08-30T04:11:41;14.70;98.60
24430;DHT22;12613;47.408;8.412;2023-08-30T04:14:07;14.70;98.60
24430;DHT22;12613;47.408;8.412;2023-08-30T04:16:33;14.70;98.90
24430;DHT22;12613;47.408;8.412;2023-08-30T04:18:59;14.70;98.70
24430;DHT22;12613;47.408;8.412;2023-08-30T04:21:25;14.70;98.60
24430;DHT22;12613;47.408;8.412;2023-08-30T04:23:50;14.70;98.60
24430;DHT22;12613;47.408;8.412;2023-08-30T04:26:16;14.70;98.70
24430;DHT22;12613;47.408;8.412;2023-08-30T04:28:41;14.70;98.80
24430;DHT22;12613;47.408;8.412;2023-08-30T04:31:07;14.70;98.80
24430;DHT22;12613;47.408;8.412;2023-08-30T04:33:33;14.70;98.80
24430;DHT22;12613;47.408;8.412;2023-08-30T04:35:58;14.70;98.90
24430;DHT22;12613;47.408;8.412;2023-08-30T04:38:26;14.70;98.80
24430;DHT22;12613;47.408;8.412;2023-08-30T04:40:57;14.70;98.90
24430;DHT22;12613;47.408;8.412;2023-08-30T04:43:23;14.80;99.00
24430;DHT22;12613;47.408;8.412;2023-08-30T04:45:49;14.80;98.90
24430;DHT22;12613;47.408;8.412;2023-08-30T04:48:15;14.80;99.00
24430;DHT22;12613;47.408;8.412;2023-08-30T04:50:40;14.80;99.10
24430;DHT22;12613;47.408;8.412;2023-08-30T04:53:06;14.80;99.00
24430;DHT22;12613;47.408;8.412;2023-08-30T04:55:32;14.80;99.10
24430;DHT22;12613;47.408;8.412;2023-08-30T04:57:57;14.80;99.00
24430;DHT22;12613;47.408;8.412;2023-08-30T05:00:23;14.80;99.00
24430;DHT22;12613;47.408;8.412;2023-08-30T05:02:49;14.70;98.90
24430;DHT22;12613;47.408;8.412;2023-08-30T05:05:15;14.70;99.00
24430;DHT22;12613;47.408;8.412;2023-08-30T05:07:40;14.70;99.00
24430;DHT22;12613;47.408;8.412;2023-08-30T05:10:07;14.70;99.10
24430;DHT22;12613;47.408;8.412;2023-08-30T05:12:36;14.70;99.10
24430;DHT22;12613;47.408;8.412;2023-08-30T05:15:02;14.70;99.10
24430;DHT22;12613;47.408;8.412;2023-08-30T05:17:29;14.70;99.20
24430;DHT22;12613;47.408;8.412;2023-08-30T05:19:55;14.70;99.10
24430;DHT22;12613;47.408;8.412;2023-08-30T05:22:20;14.70;99.10
24430;DHT22;12613;47.408;8.412;2023-08-30T05:24:46;14.70;99.20
24430;DHT22;12613;47.408;8.412;2023-08-30T05:27:12;14.70;99.20
24430;DHT22;12613;47.408;8.412;2023-08-30T05:29:38;14.70;99.20
24430;DHT22;12613;47.408;8.412;2023-08-30T05:32:04;14.70;99.20
24430;DHT22;12613;47.408;8.412;2023-08-30T05:34:30;14.80;99.40
24430;DHT22;12613;47.408;8.412;2023-08-30T05:36:56;14.80;99.50
24430;DHT22;12613;47.408;8.412;2023-08-30T05:39:22;14.90;99.50
24430;DHT22;12613;47.408;8.412;2023-08-30T05:41:47;14.90;99.40
24430;DHT22;12613;47.408;8.412;2023-08-30T05:44:13;14.90;99.40
24430;DHT22;12613;47.408;8.412;2023-08-30T05:46:39;14.90;99.50
24430;DHT22;12613;47.408;8.412;2023-08-30T05:49:04;14.90;99.50
24430;DHT22;12613;47.408;8.412;2023-08-30T05:51:30;15.00;99.50
24430;DHT22;12613;47.408;8.412;2023-08-30T05:53:56;15.10;99.50
24430;DHT22;12613;47.408;8.412;2023-08-30T05:56:21;15.00;99.50
24430;DHT22;12613;47.408;8.412;2023-08-30T05:58:47;15.10;99.40
24430;DHT22;12613;47.408;8.412;2023-08-30T06:01:13;15.10;99.50
24430;DHT22;12613;47.408;8.412;2023-08-30T06:03:39;15.10;99.40
24430;DHT22;12613;47.408;8.412;2023-08-30T06:06:05;15.20;99.50
24430;DHT22;12613;47.408;8.412;2023-08-30T06:08:31;15.20;99.50
24430;DHT22;12613;47.408;8.412;2023-08-30T06:10:57;15.20;99.50
24430;DHT22;12613;47.408;8.412;2023-08-30T06:13:22;15.30;99.40
24430;DHT22;12613;47.408;8.412;2023-08-30T06:15:52;15.30;99.40
24430;DHT22;12613;47.408;8.412;2023-08-30T06:18:18;15.30;99.40
24430;DHT22;12613;47.408;8.412;2023-08-30T06:20:44;15.40;99.50
24430;DHT22;12613;47.408;8.412;2023-08-30T06:23:10;15.40;99.40
24430;DHT22;12613;47.408;8.412;2023-08-30T06:25:36;15.40;99.40
24430;DHT22;12613;47.408;8.412;2023-08-30T06:28:02;15.50;99.40
24430;DHT22;12613;47.408;8.412;2023-08-30T06:30:29;15.50;99.40
24430;DHT22;12613;47.408;8.412;2023-08-30T06:32:57;15.60;99.10
24430;DHT22;12613;47.408;8.412;2023-08-30T06:35:23;15.50;98.90
24430;DHT22;12613;47.408;8.412;2023-08-30T06:37:49;15.50;99.00
24430;DHT22;12613;47.408;8.412;2023-08-30T06:40:15;15.60;99.10
24430;DHT22;12613;47.408;8.412;2023-08-30T06:42:40;15.60;99.20
24430;DHT22;12613;47.408;8.412;2023-08-30T06:45:06;15.70;99.20
24430;DHT22;12613;47.408;8.412;2023-08-30T06:47:32;15.70;99.30
24430;DHT22;12613;47.408;8.412;2023-08-30T06:49:58;15.80;99.20
24430;DHT22;12613;47.408;8.412;2023-08-30T06:52:24;15.90;99.20
24430;DHT22;12613;47.408;8.412;2023-08-30T06:54:50;16.00;99.10
24430;DHT22;12613;47.408;8.412;2023-08-30T06:57:16;16.10;99.10
24430;DHT22;12613;47.408;8.412;2023-08-30T06:59:41;16.10;98.80
24430;DHT22;12613;47.408;8.412;2023-08-30T07:02:07;16.20;98.70
24430;DHT22;12613;47.408;8.412;2023-08-30T07:04:32;16.20;98.60
24430;DHT22;12613;47.408;8.412;2023-08-30T07:06:58;16.20;98.40
24430;DHT22;12613;47.408;8.412;2023-08-30T07:09:23;16.30;98.30
24430;DHT22;12613;47.408;8.412;2023-08-30T07:11:57;16.30;98.00
24430;DHT22;12613;47.408;8.412;2023-08-30T07:14:23;16.30;97.90
24430;DHT22;12613;47.408;8.412;2023-08-30T07:16:48;16.30;97.90
24430;DHT22;12613;47.408;8.412;2023-08-30T07:19:15;16.30;98.00
24430;DHT22;12613;47.408;8.412;2023-08-30T07:21:44;16.40;97.80
24430;DHT22;12613;47.408;8.412;2023-08-30T07:24:10;16.50;97.90
24430;DHT22;12613;47.408;8.412;2023-08-30T07:26:36;16.50;97.60
24430;DHT22;12613;47.408;8.412;2023-08-30T07:29:02;16.50;97.40
24430;DHT22;12613;47.408;8.412;2023-08-30T07:31:30;16.50;97.40
24430;DHT22;12613;47.408;8.412;2023-08-30T07:33:56;16.60;97.00
24430;DHT22;12613;47.408;8.412;2023-08-30T07:36:23;16.50;96.90
24430;DHT22;12613;47.408;8.412;2023-08-30T07:38:49;16.50;96.90
24430;DHT22;12613;47.408;8.412;2023-08-30T07:41:15;16.50;97.10
24430;DHT22;12613;47.408;8.412;2023-08-30T07:43:40;16.60;97.00
24430;DHT22;12613;47.408;8.412;2023-08-30T07:46:06;16.60;97.00
24430;DHT22;12613;47.408;8.412;2023-08-30T07:48:31;16.70;96.80
24430;DHT22;12613;47.408;8.412;2023-08-30T07:50:57;16.70;96.60
24430;DHT22;12613;47.408;8.412;2023-08-30T07:53:22;16.70;96.70
24430;DHT22;12613;47.408;8.412;2023-08-30T07:55:51;16.80;96.70
24430;DHT22;12613;47.408;8.412;2023-08-30T07:58:17;16.80;96.50
24430;DHT22;12613;47.408;8.412;2023-08-30T08:00:43;16.90;96.40
24430;DHT22;12613;47.408;8.412;2023-08-30T08:03:09;16.90;96.40
24430;DHT22;12613;47.408;8.412;2023-08-30T08:05:36;17.00;96.30
24430;DHT22;12613;47.408;8.412;2023-08-30T08:08:02;17.00;96.10
24430;DHT22;12613;47.408;8.412;2023-08-30T08:10:32;17.00;95.90
24430;DHT22;12613;47.408;8.412;2023-08-30T08:12:58;17.00;95.90
24430;DHT22;12613;47.408;8.412;2023-08-30T08:15:24;17.10;95.80
24430;DHT22;12613;47.408;8.412;2023-08-30T08:17:49;17.10;95.80
24430;DHT22;12613;47.408;8.412;2023-08-30T08:20:15;17.20;95.70
24430;DHT22;12613;47.408;8.412;2023-08-30T08:22:41;17.20;95.40
24430;DHT22;12613;47.408;8.412;2023-08-30T08:25:06;17.30;95.30
24430;DHT22;12613;47.408;8.412;2023-08-30T08:27:36;17.30;95.30
24430;DHT22;12613;47.408;8.412;2023-08-30T08:30:03;17.30;95.20
24430;DHT22;12613;47.408;8.412;2023-08-30T08:32:29;17.40;94.90
24430;DHT22;12613;47.408;8.412;2023-08-30T08:34:56;17.40;94.80
24430;DHT22;12613;47.408;8.412;2023-08-30T08:37:22;17.40;94.70
24430;DHT22;12613;47.408;8.412;2023-08-30T08:39:47;17.40;94.50
24430;DHT22;12613;47.408;8.412;2023-08-30T08:42:18;17.50;94.60
24430;DHT22;12613;47.408;8.412;2023-08-30T08:44:46;17.60;94.70
24430;DHT22;12613;47.408;8.412;2023-08-30T08:47:16;17.70;94.50
24430;DHT22;12613;47.408;8.412;2023-08-30T08:49:44;17.80;94.50
24430;DHT22;12613;47.408;8.412;2023-08-30T08:52:10;17.90;94.50
24430;DHT22;12613;47.408;8.412;2023-08-30T08:54:38;18.00;94.20
24430;DHT22;12613;47.408;8.412;2023-08-30T08:57:06;18.10;94.40
24430;DHT22;12613;47.408;8.412;2023-08-30T08:59:32;18.30;93.70
24430;DHT22;12613;47.408;8.412;2023-08-30T09:02:00;18.30;93.60
24430;DHT22;12613;47.408;8.412;2023-08-30T09:04:25;18.30;93.10
24430;DHT22;12613;47.408;8.412;2023-08-30T09:06:51;18.30;93.00
24430;DHT22;12613;47.408;8.412;2023-08-30T09:09:17;18.30;92.90
24430;DHT22;12613;47.408;8.412;2023-08-30T09:11:43;18.40;93.00
24430;DHT22;12613;47.408;8.412;2023-08-30T09:14:09;18.40;92.40
24430;DHT22;12613;47.408;8.412;2023-08-30T09:16:35;18.40;92.70
24430;DHT22;12613;47.408;8.412;2023-08-30T09:19:02;18.40;92.40
24430;DHT22;12613;47.408;8.412;2023-08-30T09:21:29;18.30;91.70
24430;DHT22;12613;47.408;8.412;2023-08-30T09:24:02;18.20;91.80
24430;DHT22;12613;47.408;8.412;2023-08-30T09:26:29;18.20;91.60
24430;DHT22;12613;47.408;8.412;2023-08-30T09:29:04;18.20;92.00
24430;DHT22;12613;47.408;8.412;2023-08-30T09:31:37;18.20;92.00
24430;DHT22;12613;47.408;8.412;2023-08-30T09:34:04;18.30;91.90
24430;DHT22;12613;47.408;8.412;2023-08-30T09:36:42;18.20;91.20
24430;DHT22;12613;47.408;8.412;2023-08-30T09:41:36;18.20;91.60
24430;DHT22;12613;47.408;8.412;2023-08-30T09:44:15;18.30;91.40
24430;DHT22;12613;47.408;8.412;2023-08-30T09:49:11;18.40;90.90
24430;DHT22;12613;47.408;8.412;2023-08-30T09:51:41;18.50;91.20
24430;DHT22;12613;47.408;8.412;2023-08-30T09:54:17;18.50;90.30
24430;DHT22;12613;47.408;8.412;2023-08-30T09:56:45;18.40;90.30
24430;DHT22;12613;47.408;8.412;2023-08-30T09:59:12;18.40;90.40
24430;DHT22;12613;47.408;8.412;2023-08-30T10:01:39;18.50;89.60
24430;DHT22;12613;47.408;8.412;2023-08-30T10:04:07;18.40;89.80
24430;DHT22;12613;47.408;8.412;2023-08-30T10:06:34;18.50;90.00
24430;DHT22;12613;47.408;8.412;2023-08-30T10:09:02;18.50;89.70
24430;DHT22;12613;47.408;8.412;2023-08-30T10:11:30;18.60;90.20
24430;DHT22;12613;47.408;8.412;2023-08-30T10:13:58;18.80;90.00
24430;DHT22;12613;47.408;8.412;2023-08-30T10:16:26;18.90;88.80
24430;DHT22;12613;47.408;8.412;2023-08-30T10:19:01;18.90;88.20
24430;DHT22;12613;47.408;8.412;2023-08-30T10:21:29;18.90;87.80
24430;DHT22;12613;47.408;8.412;2023-08-30T10:23:55;18.90;87.50
24430;DHT22;12613;47.408;8.412;2023-08-30T10:26:24;19.00;88.40
24430;DHT22;12613;47.408;8.412;2023-08-30T10:28:55;19.10;87.40
24430;DHT22;12613;47.408;8.412;2023-08-30T10:31:22;19.10;86.40
24430;DHT22;12613;47.408;8.412;2023-08-30T10:33:53;19.10;86.20
24430;DHT22;12613;47.408;8.412;2023-08-30T10:36:26;19.20;86.90
24430;DHT22;12613;47.408;8.412;2023-08-30T10:38:52;19.40;86.80
24430;DHT22;12613;47.408;8.412;2023-08-30T10:43:52;19.60;85.20
24430;DHT22;12613;47.408;8.412;2023-08-30T10:46:30;19.60;84.90
24430;DHT22;12613;47.408;8.412;2023-08-30T10:48:56;19.70;84.90
24430;DHT22;12613;47.408;8.412;2023-08-30T10:51:39;19.70;83.60
24430;DHT22;12613;47.408;8.412;2023-08-30T10:54:15;19.70;83.10
24430;DHT22;12613;47.408;8.412;2023-08-30T10:56:48;19.80;83.90
24430;DHT22;12613;47.408;8.412;2023-08-30T10:59:22;19.80;83.10
24430;DHT22;12613;47.408;8.412;2023-08-30T11:01:49;19.80;82.40
24430;DHT22;12613;47.408;8.412;2023-08-30T11:04:15;19.80;81.50
24430;DHT22;12613;47.408;8.412;2023-08-30T11:06:43;19.80;81.70
24430;DHT22;12613;47.408;8.412;2023-08-30T11:09:10;19.90;82.00
24430;DHT22;12613;47.408;8.412;2023-08-30T11:11:37;20.10;81.80
24430;DHT22;12613;47.408;8.412;2023-08-30T11:14:05;20.20;80.30
24430;DHT22;12613;47.408;8.412;2023-08-30T11:16:31;20.20;80.40
24430;DHT22;12613;47.408;8.412;2023-08-30T11:18:58;20.30;81.20
24430;DHT22;12613;47.408;8.412;2023-08-30T11:21:23;20.50;81.40
24430;DHT22;12613;47.408;8.412;2023-08-30T11:23:49;20.70;80.80
24430;DHT22;12613;47.408;8.412;2023-08-30T11:26:16;20.80;80.70
24430;DHT22;12613;47.408;8.412;2023-08-30T11:28:45;21.00;79.90
24430;DHT22;12613;47.408;8.412;2023-08-30T11:31:24;21.00;78.10
24430;DHT22;12613;47.408;8.412;2023-08-30T11:33:54;20.80;77.10
24430;DHT22;12613;47.408;8.412;2023-08-30T11:36:25;20.80;78.00
24430;DHT22;12613;47.408;8.412;2023-08-30T11:38:54;20.90;76.80
24430;DHT22;12613;47.408;8.412;2023-08-30T11:41:21;20.80;76.90
24430;DHT22;12613;47.408;8.412;2023-08-30T11:43:53;20.80;77.00
24430;DHT22;12613;47.408;8.412;2023-08-30T11:46:20;20.90;77.00
24430;DHT22;12613;47.408;8.412;2023-08-30T11:48:47;20.90;75.70
24430;DHT22;12613;47.408;8.412;2023-08-30T11:51:14;20.90;76.20
24430;DHT22;12613;47.408;8.412;2023-08-30T11:53:40;21.00;76.70
24430;DHT22;12613;47.408;8.412;2023-08-30T11:56:06;21.10;76.50
24430;DHT22;12613;47.408;8.412;2023-08-30T11:58:33;21.10;76.40
24430;DHT22;12613;47.408;8.412;2023-08-30T12:01:00;21.30;76.60
24430;DHT22;12613;47.408;8.412;2023-08-30T12:03:30;21.30;75.60
24430;DHT22;12613;47.408;8.412;2023-08-30T12:05:57;21.40;75.20
24430;DHT22;12613;47.408;8.412;2023-08-30T12:08:29;21.50;75.00
24430;DHT22;12613;47.408;8.412;2023-08-30T12:10:56;21.40;72.90
24430;DHT22;12613;47.408;8.412;2023-08-30T12:13:26;21.30;73.40
24430;DHT22;12613;47.408;8.412;2023-08-30T12:15:53;21.40;73.30
24430;DHT22;12613;47.408;8.412;2023-08-30T12:18:22;21.40;73.00
24430;DHT22;12613;47.408;8.412;2023-08-30T12:20:56;21.40;72.90
24430;DHT22;12613;47.408;8.412;2023-08-30T12:23:24;21.40;72.60
24430;DHT22;12613;47.408;8.412;2023-08-30T12:26:05;21.60;73.70
24430;DHT22;12613;47.408;8.412;2023-08-30T12:28:33;21.70;72.80
24430;DHT22;12613;47.408;8.412;2023-08-30T12:30:59;21.70;70.90
24430;DHT22;12613;47.408;8.412;2023-08-30T12:33:25;21.60;71.10
24430;DHT22;12613;47.408;8.412;2023-08-30T12:35:52;21.70;71.60
24430;DHT22;12613;47.408;8.412;2023-08-30T12:38:18;21.70;71.20
24430;DHT22;12613;47.408;8.412;2023-08-30T12:40:48;21.70;70.40
24430;DHT22;12613;47.408;8.412;2023-08-30T12:43:17;21.70;69.80
24430;DHT22;12613;47.408;8.412;2023-08-30T12:45:44;21.70;70.60
24430;DHT22;12613;47.408;8.412;2023-08-30T12:48:10;21.70;69.30
24430;DHT22;12613;47.408;8.412;2023-08-30T12:50:37;21.70;68.90
24430;DHT22;12613;47.408;8.412;2023-08-30T12:53:07;21.70;69.30
24430;DHT22;12613;47.408;8.412;2023-08-30T12:55:33;21.70;69.10
24430;DHT22;12613;47.408;8.412;2023-08-30T12:58:00;21.70;68.50
24430;DHT22;12613;47.408;8.412;2023-08-30T13:00:26;21.60;68.70
24430;DHT22;12613;47.408;8.412;2023-08-30T13:02:52;21.50;68.80
24430;DHT22;12613;47.408;8.412;2023-08-30T13:05:18;21.40;68.30
24430;DHT22;12613;47.408;8.412;2023-08-30T13:07:43;21.10;67.80
24430;DHT22;12613;47.408;8.412;2023-08-30T13:10:09;20.90;68.90
24430;DHT22;12613;47.408;8.412;2023-08-30T13:12:36;20.70;69.40
24430;DHT22;12613;47.408;8.412;2023-08-30T13:15:02;20.60;70.70
24430;DHT22;12613;47.408;8.412;2023-08-30T13:17:28;20.50;70.00
24430;DHT22;12613;47.408;8.412;2023-08-30T13:19:54;20.50;70.90
24430;DHT22;12613;47.408;8.412;2023-08-30T13:22:20;20.60;71.00
24430;DHT22;12613;47.408;8.412;2023-08-30T13:24:46;20.60;71.00
24430;DHT22;12613;47.408;8.412;2023-08-30T13:27:13;20.60;70.60
24430;DHT22;12613;47.408;8.412;2023-08-30T13:29:38;20.50;70.80
24430;DHT22;12613;47.408;8.412;2023-08-30T13:32:04;20.50;71.10
24430;DHT22;12613;47.408;8.412;2023-08-30T13:34:30;20.50;70.70
24430;DHT22;12613;47.408;8.412;2023-08-30T13:36:56;20.40;70.70
24430;DHT22;12613;47.408;8.412;2023-08-30T13:39:22;20.40;71.60
24430;DHT22;12613;47.408;8.412;2023-08-30T13:41:48;20.30;71.70
24430;DHT22;12613;47.408;8.412;2023-08-30T13:44:14;20.30;72.70
24430;DHT22;12613;47.408;8.412;2023-08-30T13:46:40;20.40;74.30
24430;DHT22;12613;47.408;8.412;2023-08-30T13:49:06;20.50;73.80
24430;DHT22;12613;47.408;8.412;2023-08-30T13:51:32;20.50;73.10
24430;DHT22;12613;47.408;8.412;2023-08-30T13:53:58;20.50;73.00
24430;DHT22;12613;47.408;8.412;2023-08-30T13:56:24;20.50;73.50
24430;DHT22;12613;47.408;8.412;2023-08-30T13:58:50;20.60;74.00
24430;DHT22;12613;47.408;8.412;2023-08-30T14:01:16;20.60;74.40
24430;DHT22;12613;47.408;8.412;2023-08-30T14:03:42;20.80;74.80
24430;DHT22;12613;47.408;8.412;2023-08-30T14:06:08;20.90;74.50
24430;DHT22;12613;47.408;8.412;2023-08-30T14:08:34;21.00;74.30
24430;DHT22;12613;47.408;8.412;2023-08-30T14:11:00;21.20;75.20
24430;DHT22;12613;47.408;8.412;2023-08-30T14:13:26;21.40;74.50
24430;DHT22;12613;47.408;8.412;2023-08-30T14:15:53;21.50;74.10
24430;DHT22;12613;47.408;8.412;2023-08-30T14:18:19;21.60;74.30
24430;DHT22;12613;47.408;8.412;2023-08-30T14:20:45;21.70;73.90
24430;DHT22;12613;47.408;8.412;2023-08-30T14:23:10;21.80;74.40
24430;DHT22;12613;47.408;8.412;2023-08-30T14:25:36;22.00;74.50
24430;DHT22;12613;47.408;8.412;2023-08-30T14:28:02;22.20;74.50
24430;DHT22;12613;47.408;8.412;2023-08-30T14:30:29;22.40;74.50
24430;DHT22;12613;47.408;8.412;2023-08-30T14:32:55;22.70;74.10
24430;DHT22;12613;47.408;8.412;2023-08-30T14:35:21;23.00;74.10
24430;DHT22;12613;47.408;8.412;2023-08-30T14:37:47;23.40;72.80
24430;DHT22;12613;47.408;8.412;2023-08-30T14:40:13;23.80;72.50
24430;DHT22;12613;47.408;8.412;2023-08-30T14:42:39;24.10;70.10
24430;DHT22;12613;47.408;8.412;2023-08-30T14:45:06;24.10;68.00
24430;DHT22;12613;47.408;8.412;2023-08-30T14:47:35;24.00;66.00
24430;DHT22;12613;47.408;8.412;2023-08-30T14:50:01;23.80;65.20
24430;DHT22;12613;47.408;8.412;2023-08-30T14:52:28;23.60;65.00
24430;DHT22;12613;47.408;8.412;2023-08-30T14:54:54;23.50;64.30
24430;DHT22;12613;47.408;8.412;2023-08-30T14:57:20;23.10;62.50
24430;DHT22;12613;47.408;8.412;2023-08-30T14:59:46;22.90;63.40
24430;DHT22;12613;47.408;8.412;2023-08-30T15:02:12;22.70;63.80
24430;DHT22;12613;47.408;8.412;2023-08-30T15:04:39;22.50;63.10
24430;DHT22;12613;47.408;8.412;2023-08-30T15:07:04;22.30;63.50
24430;DHT22;12613;47.408;8.412;2023-08-30T15:09:30;22.30;64.70
24430;DHT22;12613;47.408;8.412;2023-08-30T15:11:56;22.20;65.00
24430;DHT22;12613;47.408;8.412;2023-08-30T15:14:24;22.20;65.50
24430;DHT22;12613;47.408;8.412;2023-08-30T15:16:49;22.20;65.30
24430;DHT22;12613;47.408;8.412;2023-08-30T15:19:15;22.10;65.00
24430;DHT22;12613;47.408;8.412;2023-08-30T15:21:41;22.10;65.80
24430;DHT22;12613;47.408;8.412;2023-08-30T15:24:07;22.10;66.00
24430;DHT22;12613;47.408;8.412;2023-08-30T15:26:32;22.10;66.60
24430;DHT22;12613;47.408;8.412;2023-08-30T15:28:58;22.10;66.10
24430;DHT22;12613;47.408;8.412;2023-08-30T15:31:24;22.10;65.90
24430;DHT22;12613;47.408;8.412;2023-08-30T15:33:49;22.00;66.00
24430;DHT22;12613;47.408;8.412;2023-08-30T15:36:15;22.00;66.30
24430;DHT22;12613;47.408;8.412;2023-08-30T15:38:41;21.90;65.90
24430;DHT22;12613;47.408;8.412;2023-08-30T15:41:10;21.90;66.00
24430;DHT22;12613;47.408;8.412;2023-08-30T15:43:39;21.80;66.60